sensor_id;sensor_type;location;lat;lon;timestamp;temperature;humidity
46494;DHT22;53214;49.314;6.280;2024-03-23T00:53:09;5.50;99.90
46494;DHT22;53214;49.314;6.280;2024-03-23T00:55:35;5.40;99.90
46494;DHT22;53214;49.314;6.280;2024-03-23T00:58:00;5.40;99.90
46494;DHT22;53214;49.314;6.280;2024-03-23T01:00:26;5.40;99.90
46494;DHT22;53214;49.314;6.280;2024-03-23T01:02:52;5.40;99.90
46494;DHT22;53214;49.314;6.280;2024-03-23T01:05:18;5.30;99.90
46494;DHT22;53214;49.314;6.280;2024-03-23T01:07:44;5.30;99.90
46494;DHT22;53214;49.314;6.280;2024-03-23T01:10:10;5.30;99.90
46494;DHT22;53214;49.314;6.280;2024-03-23T01:12:35;5.30;99.90
46494;DHT22;53214;49.314;6.280;2024-03-23T01:15:01;5.20;99.90
46494;DHT22;53214;49.314;6.280;2024-03-23T01:17:27;5.20;99.90
46494;DHT22;53214;49.314;6.280;2024-03-23T01:19:53;5.30;99.90
46494;DHT22;53214;49.314;6.280;2024-03-23T01:22:19;5.20;99.90
46494;DHT22;53214;49.314;6.280;2024-03-23T01:24:44;5.30;99.90
46494;DHT22;53214;49.314;6.280;2024-03-23T01:27:10;5.30;99.90
46494;DHT22;53214;49.314;6.280;2024-03-23T01:29:36;5.40;99.90
46494;DHT22;53214;49.314;6.280;2024-03-23T01:32:02;5.40;99.90
46494;DHT22;53214;49.314;6.280;2024-03-23T01:34:27;5.40;99.90
46494;DHT22;53214;49.314;6.280;2024-03-23T01:36:53;5.50;99.90
46494;DHT22;53214;49.314;6.280;2024-03-23T01:39:19;5.50;99.90
46494;DHT22;53214;49.314;6.280;2024-03-23T01:41:45;5.40;99.90
46494;DHT22;53214;49.314;6.280;2024-03-23T01:44:11;5.30;99.90
46494;DHT22;53214;49.314;6.280;2024-03-23T01:46:37;5.20;99.90
46494;DHT22;53214;49.314;6.280;2024-03-23T01:49:05;5.20;99.90
46494;DHT22;53214;49.314;6.280;2024-03-23T01:51:32;5.20;99.90
46494;DHT22;53214;49.314;6.280;2024-03-23T01:54:00;5.10;99.90
46494;DHT22;53214;49.314;6.280;2024-03-23T01:56:32;5.10;99.90
46494;DHT22;53214;49.314;6.280;2024-03-23T01:58:59;5.10;99.90
46494;DHT22;53214;49.314;6.280;2024-03-23T02:01:26;5.00;99.90
46494;DHT22;53214;49.314;6.280;2024-03-23T02:03:52;4.90;99.90
46494;DHT22;53214;49.314;6.280;2024-03-23T02:06:18;5.00;99.90
46494;DHT22;53214;49.314;6.280;2024-03-23T02:08:44;4.90;99.90
46494;DHT22;53214;49.314;6.280;2024-03-23T02:11:10;4.90;99.90
46494;DHT22;53214;49.314;6.280;2024-03-23T02:13:35;4.90;99.90
46494;DHT22;53214;49.314;6.280;2024-03-23T02:16:01;4.90;99.90
46494;DHT22;53214;49.314;6.280;2024-03-23T02:18:27;4.80;99.90
46494;DHT22;53214;49.314;6.280;2024-03-23T02:20:53;4.80;99.90
46494;DHT22;53214;49.314;6.280;2024-03-23T02:23:19;4.80;99.90
46494;DHT22;53214;49.314;6.280;2024-03-23T02:25:45;4.70;99.90
46494;DHT22;53214;49.314;6.280;2024-03-23T02:28:11;4.70;99.90
46494;DHT22;53214;49.314;6.280;2024-03-23T02:30:38;4.70;99.90
46494;DHT22;53214;49.314;6.280;2024-03-23T02:33:04;4.70;99.90
46494;DHT22;53214;49.314;6.280;2024-03-23T02:35:30;4.70;99.90
46494;DHT22;53214;49.314;6.280;2024-03-23T02:37:56;4.70;99.90
46494;DHT22;53214;49.314;6.280;2024-03-23T02:40:26;4.60;99.90
46494;DHT22;53214;49.314;6.280;2024-03-23T02:42:52;4.60;99.90
46494;DHT22;53214;49.314;6.280;2024-03-23T02:45:18;4.60;99.90
46494;DHT22;53214;49.314;6.280;2024-03-23T02:47:44;4.60;99.90
46494;DHT22;53214;49.314;6.280;2024-03-23T02:50:10;4.50;99.90
46494;DHT22;53214;49.314;6.280;2024-03-23T02:52:36;4.50;99.90
46494;DHT22;53214;49.314;6.280;2024-03-23T02:55:03;4.50;99.90
46494;DHT22;53214;49.314;6.280;2024-03-23T02:57:29;4.50;99.90
46494;DHT22;53214;49.314;6.280;2024-03-23T02:59:55;4.40;99.90
46494;DHT22;53214;49.314;6.280;2024-03-23T03:02:21;4.50;99.90
46494;DHT22;53214;49.314;6.280;2024-03-23T03:04:47;4.40;99.90
46494;DHT22;53214;49.314;6.280;2024-03-23T03:07:13;4.50;99.90
46494;DHT22;53214;49.314;6.280;2024-03-23T03:09:39;4.50;99.90
46494;DHT22;53214;49.314;6.280;2024-03-23T03:12:06;4.70;99.90
46494;DHT22;53214;49.314;6.280;2024-03-23T03:14:32;4.90;99.90
46494;DHT22;53214;49.314;6.280;2024-03-23T03:16:58;5.00;99.90
46494;DHT22;53214;49.314;6.280;2024-03-23T03:19:24;5.10;99.90
46494;DHT22;53214;49.314;6.280;2024-03-23T03:21:50;5.10;99.90
46494;DHT22;53214;49.314;6.280;2024-03-23T03:24:15;5.20;99.90
46494;DHT22;53214;49.314;6.280;2024-03-23T03:26:42;5.30;99.90
46494;DHT22;53214;49.314;6.280;2024-03-23T03:29:08;5.30;99.90
46494;DHT22;53214;49.314;6.280;2024-03-23T03:31:34;5.30;99.90
46494;DHT22;53214;49.314;6.280;2024-03-23T03:34:00;5.40;99.90
46494;DHT22;53214;49.314;6.280;2024-03-23T03:36:26;5.30;99.90
46494;DHT22;53214;49.314;6.280;2024-03-23T03:38:51;5.30;99.90
46494;DHT22;53214;49.314;6.280;2024-03-23T03:41:18;5.40;99.90
46494;DHT22;53214;49.314;6.280;2024-03-23T03:43:44;5.30;99.90
46494;DHT22;53214;49.314;6.280;2024-03-23T03:46:10;5.30;99.90
46494;DHT22;53214;49.314;6.280;2024-03-23T03:48:37;5.30;99.90
46494;DHT22;53214;49.314;6.280;2024-03-23T03:51:03;5.30;99.90
46494;DHT22;53214;49.314;6.280;2024-03-23T03:53:29;5.20;99.90
46494;DHT22;53214;49.314;6.280;2024-03-23T03:55:56;5.10;99.90
46494;DHT22;53214;49.314;6.280;2024-03-23T03:58:22;4.90;99.90
46494;DHT22;53214;49.314;6.280;2024-03-23T04:00:47;4.90;99.90
46494;DHT22;53214;49.314;6.280;2024-03-23T04:03:13;4.80;99.90
46494;DHT22;53214;49.314;6.280;2024-03-23T04:05:39;4.70;99.90
46494;DHT22;53214;49.314;6.280;2024-03-23T04:08:07;4.70;99.90
46494;DHT22;53214;49.314;6.280;2024-03-23T04:10:33;4.60;99.90
46494;DHT22;53214;49.314;6.280;2024-03-23T04:12:58;4.50;99.90
46494;DHT22;53214;49.314;6.280;2024-03-23T04:15:24;4.50;99.90
46494;DHT22;53214;49.314;6.280;2024-03-23T04:17:50;4.50;99.90
46494;DHT22;53214;49.314;6.280;2024-03-23T04:20:16;4.50;99.90
46494;DHT22;53214;49.314;6.280;2024-03-23T04:22:43;4.40;99.90
46494;DHT22;53214;49.314;6.280;2024-03-23T04:25:09;4.40;99.90
46494;DHT22;53214;49.314;6.280;2024-03-23T04:27:36;4.40;99.90
46494;DHT22;53214;49.314;6.280;2024-03-23T04:30:03;4.30;99.90
46494;DHT22;53214;49.314;6.280;2024-03-23T04:32:30;4.40;99.90
46494;DHT22;53214;49.314;6.280;2024-03-23T04:34:56;4.30;99.90
46494;DHT22;53214;49.314;6.280;2024-03-23T04:37:22;4.30;99.90
46494;DHT22;53214;49.314;6.280;2024-03-23T04:39:49;4.30;99.90
46494;DHT22;53214;49.314;6.280;2024-03-23T04:42:15;4.20;99.90
46494;DHT22;53214;49.314;6.280;2024-03-23T04:44:41;4.20;99.90
46494;DHT22;53214;49.314;6.280;2024-03-23T04:47:07;4.20;99.90
46494;DHT22;53214;49.314;6.280;2024-03-23T04:49:33;4.10;99.90
46494;DHT22;53214;49.314;6.280;2024-03-23T04:52:00;4.10;99.90
46494;DHT22;53214;49.314;6.280;2024-03-23T04:54:25;4.10;99.90
46494;DHT22;53214;49.314;6.280;2024-03-23T04:56:51;4.10;99.90
46494;DHT22;53214;49.314;6.280;2024-03-23T04:59:17;4.10;99.90
46494;DHT22;53214;49.314;6.280;2024-03-23T05:01:43;4.10;99.90
46494;DHT22;53214;49.314;6.280;2024-03-23T05:04:09;4.20;99.90
46494;DHT22;53214;49.314;6.280;2024-03-23T05:06:35;4.40;99.90
46494;DHT22;53214;49.314;6.280;2024-03-23T05:09:01;4.50;99.90
46494;DHT22;53214;49.314;6.280;2024-03-23T05:11:32;4.60;99.90
46494;DHT22;53214;49.314;6.280;2024-03-23T05:13:58;4.50;99.90
46494;DHT22;53214;49.314;6.280;2024-03-23T05:16:24;4.40;99.90
46494;DHT22;53214;49.314;6.280;2024-03-23T05:18:50;4.20;99.90
46494;DHT22;53214;49.314;6.280;2024-03-23T05:21:16;4.10;99.90
46494;DHT22;53214;49.314;6.280;2024-03-23T05:23:41;4.10;99.90
46494;DHT22;53214;49.314;6.280;2024-03-23T05:26:09;4.10;99.90
46494;DHT22;53214;49.314;6.280;2024-03-23T05:28:35;4.00;99.90
46494;DHT22;53214;49.314;6.280;2024-03-23T05:31:01;3.90;99.90
46494;DHT22;53214;49.314;6.280;2024-03-23T05:33:27;3.90;99.90
46494;DHT22;53214;49.314;6.280;2024-03-23T05:35:57;3.80;99.90
46494;DHT22;53214;49.314;6.280;2024-03-23T05:38:23;3.80;99.90
46494;DHT22;53214;49.314;6.280;2024-03-23T05:40:55;3.70;99.90
46494;DHT22;53214;49.314;6.280;2024-03-23T05:43:22;3.70;99.90
46494;DHT22;53214;49.314;6.280;2024-03-23T05:45:58;3.60;99.90
46494;DHT22;53214;49.314;6.280;2024-03-23T05:48:25;3.60;99.90
46494;DHT22;53214;49.314;6.280;2024-03-23T05:50:52;3.50;99.90
46494;DHT22;53214;49.314;6.280;2024-03-23T05:53:19;3.60;99.90
46494;DHT22;53214;49.314;6.280;2024-03-23T05:55:49;3.60;99.90
46494;DHT22;53214;49.314;6.280;2024-03-23T05:58:16;3.60;99.90
46494;DHT22;53214;49.314;6.280;2024-03-23T06:00:43;3.50;99.90
46494;DHT22;53214;49.314;6.280;2024-03-23T06:03:09;3.60;99.90
46494;DHT22;53214;49.314;6.280;2024-03-23T06:05:38;3.60;99.90
46494;DHT22;53214;49.314;6.280;2024-03-23T06:08:05;3.50;99.90
46494;DHT22;53214;49.314;6.280;2024-03-23T06:10:31;3.60;99.90
46494;DHT22;53214;49.314;6.280;2024-03-23T06:12:59;3.60;99.90
46494;DHT22;53214;49.314;6.280;2024-03-23T06:15:26;3.60;99.90
46494;DHT22;53214;49.314;6.280;2024-03-23T06:17:53;3.60;99.90
46494;DHT22;53214;49.314;6.280;2024-03-23T06:20:18;3.70;99.90
46494;DHT22;53214;49.314;6.280;2024-03-23T06:22:44;3.70;99.90
46494;DHT22;53214;49.314;6.280;2024-03-23T06:25:10;3.80;99.90
46494;DHT22;53214;49.314;6.280;2024-03-23T06:27:38;3.80;99.90
46494;DHT22;53214;49.314;6.280;2024-03-23T06:30:05;3.90;99.90
46494;DHT22;53214;49.314;6.280;2024-03-23T06:32:32;4.00;99.90
46494;DHT22;53214;49.314;6.280;2024-03-23T06:34:58;4.00;99.90
46494;DHT22;53214;49.314;6.280;2024-03-23T06:37:24;4.10;99.90
46494;DHT22;53214;49.314;6.280;2024-03-23T06:39:50;4.20;99.90
46494;DHT22;53214;49.314;6.280;2024-03-23T06:42:15;4.30;99.90
46494;DHT22;53214;49.314;6.280;2024-03-23T06:44:41;4.30;99.90
46494;DHT22;53214;49.314;6.280;2024-03-23T06:47:07;4.30;99.90
46494;DHT22;53214;49.314;6.280;2024-03-23T06:49:33;4.40;99.90
46494;DHT22;53214;49.314;6.280;2024-03-23T06:51:59;4.40;99.90
46494;DHT22;53214;49.314;6.280;2024-03-23T06:54:25;4.50;99.90
46494;DHT22;53214;49.314;6.280;2024-03-23T06:56:51;4.60;99.90
46494;DHT22;53214;49.314;6.280;2024-03-23T06:59:17;4.60;99.90
46494;DHT22;53214;49.314;6.280;2024-03-23T07:01:43;4.80;99.90
46494;DHT22;53214;49.314;6.280;2024-03-23T07:04:09;4.80;99.90
46494;DHT22;53214;49.314;6.280;2024-03-23T07:06:43;4.90;99.90
46494;DHT22;53214;49.314;6.280;2024-03-23T07:09:09;4.90;99.90
46494;DHT22;53214;49.314;6.280;2024-03-23T07:11:35;5.00;99.90
46494;DHT22;53214;49.314;6.280;2024-03-23T07:14:02;5.10;99.90
46494;DHT22;53214;49.314;6.280;2024-03-23T07:16:29;5.10;99.90
46494;DHT22;53214;49.314;6.280;2024-03-23T07:18:55;5.20;99.90
46494;DHT22;53214;49.314;6.280;2024-03-23T07:21:21;5.30;99.90
46494;DHT22;53214;49.314;6.280;2024-03-23T07:23:47;5.30;99.90
46494;DHT22;53214;49.314;6.280;2024-03-23T07:26:13;5.40;99.90
46494;DHT22;53214;49.314;6.280;2024-03-23T07:28:39;5.40;99.90
46494;DHT22;53214;49.314;6.280;2024-03-23T07:31:13;5.50;99.90
46494;DHT22;53214;49.314;6.280;2024-03-23T07:33:46;5.50;99.90
46494;DHT22;53214;49.314;6.280;2024-03-23T07:36:13;5.60;99.90
46494;DHT22;53214;49.314;6.280;2024-03-23T07:38:43;5.60;99.90
46494;DHT22;53214;49.314;6.280;2024-03-23T07:41:20;5.70;99.90
46494;DHT22;53214;49.314;6.280;2024-03-23T07:43:47;5.80;99.90
46494;DHT22;53214;49.314;6.280;2024-03-23T07:46:14;5.80;99.90
46494;DHT22;53214;49.314;6.280;2024-03-23T07:48:40;5.80;99.90
46494;DHT22;53214;49.314;6.280;2024-03-23T07:51:18;5.90;99.90
46494;DHT22;53214;49.314;6.280;2024-03-23T07:53:45;6.00;99.90
46494;DHT22;53214;49.314;6.280;2024-03-23T07:56:12;6.10;99.90
46494;DHT22;53214;49.314;6.280;2024-03-23T07:58:38;6.10;99.90
46494;DHT22;53214;49.314;6.280;2024-03-23T08:01:06;6.20;99.90
46494;DHT22;53214;49.314;6.280;2024-03-23T08:03:35;6.20;99.90
46494;DHT22;53214;49.314;6.280;2024-03-23T08:06:27;6.30;99.90
46494;DHT22;53214;49.314;6.280;2024-03-23T08:08:55;6.40;99.90
46494;DHT22;53214;49.314;6.280;2024-03-23T08:11:28;6.40;99.90
46494;DHT22;53214;49.314;6.280;2024-03-23T08:13:54;6.50;99.90
46494;DHT22;53214;49.314;6.280;2024-03-23T08:16:21;6.50;99.90
46494;DHT22;53214;49.314;6.280;2024-03-23T08:18:47;6.60;99.90
46494;DHT22;53214;49.314;6.280;2024-03-23T08:21:13;6.70;99.90
46494;DHT22;53214;49.314;6.280;2024-03-23T08:23:39;6.70;99.90
46494;DHT22;53214;49.314;6.280;2024-03-23T08:26:14;6.80;99.90
46494;DHT22;53214;49.314;6.280;2024-03-23T08:28:40;6.90;99.90
46494;DHT22;53214;49.314;6.280;2024-03-23T08:31:08;7.00;99.90
46494;DHT22;53214;49.314;6.280;2024-03-23T08:33:34;7.00;99.90
46494;DHT22;53214;49.314;6.280;2024-03-23T08:36:05;7.10;99.90
46494;DHT22;53214;49.314;6.280;2024-03-23T08:38:32;7.20;99.90
46494;DHT22;53214;49.314;6.280;2024-03-23T08:40:59;7.40;99.90
46494;DHT22;53214;49.314;6.280;2024-03-23T08:43:25;7.70;99.90
46494;DHT22;53214;49.314;6.280;2024-03-23T08:45:51;8.30;99.90
46494;DHT22;53214;49.314;6.280;2024-03-23T08:48:18;8.60;99.90
46494;DHT22;53214;49.314;6.280;2024-03-23T08:50:46;8.80;99.90
46494;DHT22;53214;49.314;6.280;2024-03-23T08:53:13;8.80;99.90
46494;DHT22;53214;49.314;6.280;2024-03-23T08:55:38;8.50;99.90
46494;DHT22;53214;49.314;6.280;2024-03-23T08:58:05;8.40;99.90
46494;DHT22;53214;49.314;6.280;2024-03-23T09:00:34;8.30;99.90
46494;DHT22;53214;49.314;6.280;2024-03-23T09:03:00;8.10;99.90
46494;DHT22;53214;49.314;6.280;2024-03-23T09:05:27;8.10;99.90
46494;DHT22;53214;49.314;6.280;2024-03-23T09:07:54;8.10;99.90
46494;DHT22;53214;49.314;6.280;2024-03-23T09:10:20;8.10;99.90
46494;DHT22;53214;49.314;6.280;2024-03-23T09:12:46;8.20;99.90
46494;DHT22;53214;49.314;6.280;2024-03-23T09:15:12;8.30;99.90
46494;DHT22;53214;49.314;6.280;2024-03-23T09:17:37;8.30;99.90
46494;DHT22;53214;49.314;6.280;2024-03-23T09:20:03;8.40;99.90
46494;DHT22;53214;49.314;6.280;2024-03-23T09:22:30;8.40;99.90
46494;DHT22;53214;49.314;6.280;2024-03-23T09:24:55;8.40;99.90
46494;DHT22;53214;49.314;6.280;2024-03-23T09:27:21;8.50;99.90
46494;DHT22;53214;49.314;6.280;2024-03-23T09:29:47;8.70;99.90
46494;DHT22;53214;49.314;6.280;2024-03-23T09:32:13;8.80;99.90
46494;DHT22;53214;49.314;6.280;2024-03-23T09:34:39;8.90;99.90
46494;DHT22;53214;49.314;6.280;2024-03-23T09:37:04;9.00;99.90
46494;DHT22;53214;49.314;6.280;2024-03-23T09:39:30;9.20;99.90
46494;DHT22;53214;49.314;6.280;2024-03-23T09:41:58;9.20;99.90
46494;DHT22;53214;49.314;6.280;2024-03-23T09:44:24;9.30;99.90
46494;DHT22;53214;49.314;6.280;2024-03-23T09:46:51;9.30;99.90
46494;DHT22;53214;49.314;6.280;2024-03-23T09:49:17;9.30;99.90
46494;DHT22;53214;49.314;6.280;2024-03-23T09:51:43;9.40;99.90
46494;DHT22;53214;49.314;6.280;2024-03-23T09:54:09;9.40;99.90
46494;DHT22;53214;49.314;6.280;2024-03-23T09:56:35;9.30;99.90
46494;DHT22;53214;49.314;6.280;2024-03-23T09:59:02;9.30;99.90
46494;DHT22;53214;49.314;6.280;2024-03-23T10:01:30;9.40;99.90
46494;DHT22;53214;49.314;6.280;2024-03-23T10:03:56;9.40;99.90
46494;DHT22;53214;49.314;6.280;2024-03-23T10:06:22;9.60;99.90
46494;DHT22;53214;49.314;6.280;2024-03-23T10:08:51;9.80;99.90
46494;DHT22;53214;49.314;6.280;2024-03-23T10:11:18;9.90;99.90
46494;DHT22;53214;49.314;6.280;2024-03-23T10:13:45;10.10;99.90
46494;DHT22;53214;49.314;6.280;2024-03-23T10:16:24;10.40;99.90
46494;DHT22;53214;49.314;6.280;2024-03-23T10:18:50;10.50;99.90
46494;DHT22;53214;49.314;6.280;2024-03-23T10:21:16;10.50;99.90
46494;DHT22;53214;49.314;6.280;2024-03-23T10:23:44;10.40;99.90
46494;DHT22;53214;49.314;6.280;2024-03-23T10:26:24;10.30;99.90
46494;DHT22;53214;49.314;6.280;2024-03-23T10:29:00;10.30;99.90
46494;DHT22;53214;49.314;6.280;2024-03-23T10:31:31;10.30;99.90
46494;DHT22;53214;49.314;6.280;2024-03-23T10:33:57;10.40;99.90
46494;DHT22;53214;49.314;6.280;2024-03-23T10:36:24;10.20;99.90
46494;DHT22;53214;49.314;6.280;2024-03-23T10:38:51;10.00;99.90
46494;DHT22;53214;49.314;6.280;2024-03-23T10:41:18;9.90;99.90
46494;DHT22;53214;49.314;6.280;2024-03-23T10:43:49;10.00;99.90
46494;DHT22;53214;49.314;6.280;2024-03-23T10:46:15;10.00;99.90
46494;DHT22;53214;49.314;6.280;2024-03-23T10:48:41;10.10;99.90
46494;DHT22;53214;49.314;6.280;2024-03-23T10:51:10;10.10;99.90
46494;DHT22;53214;49.314;6.280;2024-03-23T10:53:36;10.30;99.90
46494;DHT22;53214;49.314;6.280;2024-03-23T10:56:06;10.50;99.90
46494;DHT22;53214;49.314;6.280;2024-03-23T11:01:02;10.80;99.70
46494;DHT22;53214;49.314;6.280;2024-03-23T11:03:36;11.00;99.60
46494;DHT22;53214;49.314;6.280;2024-03-23T11:06:06;11.00;99.50
46494;DHT22;53214;49.314;6.280;2024-03-23T11:08:37;10.90;99.50
46494;DHT22;53214;49.314;6.280;2024-03-23T11:11:18;10.70;99.70
46494;DHT22;53214;49.314;6.280;2024-03-23T11:13:51;10.60;99.90
46494;DHT22;53214;49.314;6.280;2024-03-23T11:16:24;10.60;99.90
46494;DHT22;53214;49.314;6.280;2024-03-23T11:18:52;10.50;99.90
46494;DHT22;53214;49.314;6.280;2024-03-23T11:21:55;10.60;99.90
46494;DHT22;53214;49.314;6.280;2024-03-23T11:24:21;10.80;99.90
46494;DHT22;53214;49.314;6.280;2024-03-23T11:26:48;11.00;99.90
46494;DHT22;53214;49.314;6.280;2024-03-23T11:29:15;11.20;99.50
46494;DHT22;53214;49.314;6.280;2024-03-23T11:31:51;11.50;98.90
46494;DHT22;53214;49.314;6.280;2024-03-23T11:34:21;11.60;98.50
46494;DHT22;53214;49.314;6.280;2024-03-23T11:36:47;11.60;98.80
46494;DHT22;53214;49.314;6.280;2024-03-23T11:39:17;11.70;98.00
46494;DHT22;53214;49.314;6.280;2024-03-23T11:41:50;11.90;97.60
46494;DHT22;53214;49.314;6.280;2024-03-23T11:44:21;12.10;97.50
46494;DHT22;53214;49.314;6.280;2024-03-23T11:46:48;12.40;97.30
46494;DHT22;53214;49.314;6.280;2024-03-23T11:49:24;12.60;96.70
46494;DHT22;53214;49.314;6.280;2024-03-23T11:51:51;12.70;96.00
46494;DHT22;53214;49.314;6.280;2024-03-23T11:54:23;12.50;96.70
46494;DHT22;53214;49.314;6.280;2024-03-23T11:57:00;12.50;96.40
46494;DHT22;53214;49.314;6.280;2024-03-23T11:59:39;12.40;96.00
46494;DHT22;53214;49.314;6.280;2024-03-23T12:02:10;12.60;96.20
46494;DHT22;53214;49.314;6.280;2024-03-23T12:04:40;12.80;96.00
46494;DHT22;53214;49.314;6.280;2024-03-23T12:07:17;13.20;95.70
46494;DHT22;53214;49.314;6.280;2024-03-23T12:09:47;13.20;95.10
46494;DHT22;53214;49.314;6.280;2024-03-23T12:14:40;13.10;95.40
46494;DHT22;53214;49.314;6.280;2024-03-23T12:17:11;13.00;95.50
46494;DHT22;53214;49.314;6.280;2024-03-23T12:19:38;13.10;96.00
46494;DHT22;53214;49.314;6.280;2024-03-23T12:22:10;13.30;95.80
46494;DHT22;53214;49.314;6.280;2024-03-23T12:24:35;13.70;96.30
46494;DHT22;53214;49.314;6.280;2024-03-23T12:27:05;13.80;96.00
46494;DHT22;53214;49.314;6.280;2024-03-23T12:29:31;13.70;96.10
46494;DHT22;53214;49.314;6.280;2024-03-23T12:32:01;13.70;96.30
46494;DHT22;53214;49.314;6.280;2024-03-23T12:34:28;13.80;95.50
46494;DHT22;53214;49.314;6.280;2024-03-23T12:36:54;13.50;94.90
46494;DHT22;53214;49.314;6.280;2024-03-23T12:39:20;13.40;94.40
46494;DHT22;53214;49.314;6.280;2024-03-23T12:41:47;13.30;95.10
46494;DHT22;53214;49.314;6.280;2024-03-23T12:44:13;13.10;96.60
46494;DHT22;53214;49.314;6.280;2024-03-23T12:46:41;12.70;98.70
46494;DHT22;53214;49.314;6.280;2024-03-23T12:49:07;12.20;99.90
46494;DHT22;53214;49.314;6.280;2024-03-23T12:51:33;12.10;99.90
46494;DHT22;53214;49.314;6.280;2024-03-23T12:54:01;12.20;99.90
46494;DHT22;53214;49.314;6.280;2024-03-23T12:56:27;12.10;99.90
46494;DHT22;53214;49.314;6.280;2024-03-23T12:58:56;11.90;99.90
46494;DHT22;53214;49.314;6.280;2024-03-23T13:01:23;11.60;99.90
46494;DHT22;53214;49.314;6.280;2024-03-23T13:03:52;11.40;99.90
46494;DHT22;53214;49.314;6.280;2024-03-23T13:06:18;11.40;99.90
46494;DHT22;53214;49.314;6.280;2024-03-23T13:08:47;11.70;99.90
46494;DHT22;53214;49.314;6.280;2024-03-23T13:11:15;12.00;99.90
46494;DHT22;53214;49.314;6.280;2024-03-23T13:13:41;12.40;99.90
46494;DHT22;53214;49.314;6.280;2024-03-23T13:16:08;12.90;99.90
46494;DHT22;53214;49.314;6.280;2024-03-23T13:18:33;13.30;99.90
46494;DHT22;53214;49.314;6.280;2024-03-23T13:20:59;13.60;99.90
46494;DHT22;53214;49.314;6.280;2024-03-23T13:23:25;13.50;99.80
46494;DHT22;53214;49.314;6.280;2024-03-23T13:25:52;13.20;99.70
46494;DHT22;53214;49.314;6.280;2024-03-23T13:28:19;13.10;99.50
46494;DHT22;53214;49.314;6.280;2024-03-23T13:30:56;13.00;99.50
46494;DHT22;53214;49.314;6.280;2024-03-23T13:33:22;13.20;99.00
46494;DHT22;53214;49.314;6.280;2024-03-23T13:35:52;13.30;98.60
46494;DHT22;53214;49.314;6.280;2024-03-23T13:38:18;13.30;98.20
46494;DHT22;53214;49.314;6.280;2024-03-23T13:40:55;13.30;98.20
46494;DHT22;53214;49.314;6.280;2024-03-23T13:43:22;13.20;98.00
46494;DHT22;53214;49.314;6.280;2024-03-23T13:45:52;13.30;97.50
46494;DHT22;53214;49.314;6.280;2024-03-23T13:48:20;13.30;96.90
46494;DHT22;53214;49.314;6.280;2024-03-23T13:50:46;13.20;96.80
46494;DHT22;53214;49.314;6.280;2024-03-23T13:53:14;12.90;97.30
46494;DHT22;53214;49.314;6.280;2024-03-23T13:55:49;12.80;98.60
46494;DHT22;53214;49.314;6.280;2024-03-23T13:58:15;12.80;98.60
46494;DHT22;53214;49.314;6.280;2024-03-23T14:00:41;12.50;99.30
46494;DHT22;53214;49.314;6.280;2024-03-23T14:03:11;12.00;99.90
46494;DHT22;53214;49.314;6.280;2024-03-23T14:05:37;11.60;99.90
46494;DHT22;53214;49.314;6.280;2024-03-23T14:08:07;11.50;99.90
46494;DHT22;53214;49.314;6.280;2024-03-23T14:10:33;11.60;99.90
46494;DHT22;53214;49.314;6.280;2024-03-23T14:13:04;11.80;99.90
46494;DHT22;53214;49.314;6.280;2024-03-23T14:15:30;11.90;99.90
46494;DHT22;53214;49.314;6.280;2024-03-23T14:17:56;11.90;99.90
46494;DHT22;53214;49.314;6.280;2024-03-23T14:20:22;12.00;99.90
46494;DHT22;53214;49.314;6.280;2024-03-23T14:22:49;12.10;99.90
46494;DHT22;53214;49.314;6.280;2024-03-23T14:25:16;12.10;99.90
46494;DHT22;53214;49.314;6.280;2024-03-23T14:27:46;12.10;99.90
46494;DHT22;53214;49.314;6.280;2024-03-23T14:30:12;12.10;99.90
46494;DHT22;53214;49.314;6.280;2024-03-23T14:32:39;12.00;99.90
46494;DHT22;53214;49.314;6.280;2024-03-23T14:35:06;12.20;99.90
46494;DHT22;53214;49.314;6.280;2024-03-23T14:37:38;12.30;99.90
46494;DHT22;53214;49.314;6.280;2024-03-23T14:40:05;12.20;99.90
46494;DHT22;53214;49.314;6.280;2024-03-23T14:42:32;12.00;99.90
46494;DHT22;53214;49.314;6.280;2024-03-23T14:44:58;11.70;99.90
46494;DHT22;53214;49.314;6.280;2024-03-23T14:47:24;11.60;99.90
46494;DHT22;53214;49.314;6.280;2024-03-23T14:49:50;11.70;99.90
46494;DHT22;53214;49.314;6.280;2024-03-23T14:52:19;11.90;99.90
46494;DHT22;53214;49.314;6.280;2024-03-23T14:54:46;11.60;99.90
46494;DHT22;53214;49.314;6.280;2024-03-23T14:57:12;11.30;99.90
46494;DHT22;53214;49.314;6.280;2024-03-23T14:59:38;11.10;99.90
46494;DHT22;53214;49.314;6.280;2024-03-23T15:02:04;10.90;99.90
46494;DHT22;53214;49.314;6.280;2024-03-23T15:04:30;10.80;99.90
46494;DHT22;53214;49.314;6.280;2024-03-23T15:06:56;10.80;99.90
46494;DHT22;53214;49.314;6.280;2024-03-23T15:09:22;10.80;99.90
46494;DHT22;53214;49.314;6.280;2024-03-23T15:11:48;10.80;99.90
46494;DHT22;53214;49.314;6.280;2024-03-23T15:14:14;10.80;99.90
46494;DHT22;53214;49.314;6.280;2024-03-23T15:16:40;10.90;99.90
46494;DHT22;53214;49.314;6.280;2024-03-23T15:19:08;11.00;99.90
46494;DHT22;53214;49.314;6.280;2024-03-23T15:21:34;10.90;99.90
46494;DHT22;53214;49.314;6.280;2024-03-23T15:24:00;11.10;99.90
46494;DHT22;53214;49.314;6.280;2024-03-23T15:26:26;11.60;99.90
46494;DHT22;53214;49.314;6.280;2024-03-23T15:28:52;11.90;99.90
46494;DHT22;53214;49.314;6.280;2024-03-23T15:31:24;11.90;99.90
46494;DHT22;53214;49.314;6.280;2024-03-23T15:33:50;12.00;99.90
46494;DHT22;53214;49.314;6.280;2024-03-23T15:36:16;12.20;99.90
46494;DHT22;53214;49.314;6.280;2024-03-23T15:38:42;12.00;99.90
46494;DHT22;53214;49.314;6.280;2024-03-23T15:41:09;11.70;99.90
46494;DHT22;53214;49.314;6.280;2024-03-23T15:43:35;11.50;99.90
46494;DHT22;53214;49.314;6.280;2024-03-23T15:46:04;11.50;99.90
46494;DHT22;53214;49.314;6.280;2024-03-23T15:48:31;11.40;99.90
46494;DHT22;53214;49.314;6.280;2024-03-23T15:50:59;11.30;99.90
46494;DHT22;53214;49.314;6.280;2024-03-23T15:53:26;11.10;99.90
46494;DHT22;53214;49.314;6.280;2024-03-23T15:55:56;10.50;99.90
46494;DHT22;53214;49.314;6.280;2024-03-23T15:58:22;9.90;99.90
46494;DHT22;53214;49.314;6.280;2024-03-23T16:03:26;9.50;99.90
46494;DHT22;53214;49.314;6.280;2024-03-23T16:05:56;9.40;99.90
46494;DHT22;53214;49.314;6.280;2024-03-23T16:08:22;9.40;99.90
46494;DHT22;53214;49.314;6.280;2024-03-23T16:10:49;9.50;99.90
46494;DHT22;53214;49.314;6.280;2024-03-23T16:13:15;9.60;99.90
46494;DHT22;53214;49.314;6.280;2024-03-23T16:15:42;9.70;99.90
46494;DHT22;53214;49.314;6.280;2024-03-23T16:18:08;9.80;99.90
46494;DHT22;53214;49.314;6.280;2024-03-23T16:20:33;9.80;99.90
46494;DHT22;53214;49.314;6.280;2024-03-23T16:23:00;9.80;99.90
46494;DHT22;53214;49.314;6.280;2024-03-23T16:25:26;9.80;99.90
46494;DHT22;53214;49.314;6.280;2024-03-23T16:27:53;9.80;99.90
46494;DHT22;53214;49.314;6.280;2024-03-23T16:30:19;9.80;99.90
46494;DHT22;53214;49.314;6.280;2024-03-23T16:32:49;9.80;99.90
46494;DHT22;53214;49.314;6.280;2024-03-23T16:35:15;9.90;99.90
46494;DHT22;53214;49.314;6.280;2024-03-23T16:37:41;10.10;99.90
46494;DHT22;53214;49.314;6.280;2024-03-23T16:40:08;10.10;99.90